Terminal Aerodrome Forecast
Issued by NWS Wilmington, NC

Home | Current Version | Previous Version | Text Only | Print | Product List | Glossary On
Versions: 1 2 3 4 5 6 7 8 9 10 11 12 13 14 15 16 17 18
000
FTUS42 KILM 271720
TAFILM
TAF
KILM 271720Z 2718/2818 19012G24KT P6SM FEW060
     FM272300 19012KT P6SM SCT250
     FM280400 19009KT P6SM OVC015
     FM280900 21009KT P6SM VCSH BKN015
     FM281600 20012G18KT P6SM VCSH BKN040=

USA.gov is the U.S. government's official web portal to all federal, state and local government web resources and services.